| time (UTC) | temp F | wind direction | speed knots | gust knots | rain 1hr in | rain 24hr in | rain mn in | humidity % | barometer mb |
| 20260509190559 | 84 | 13 | 4.3 | 5.2 | 0.00 | 0.00 | 0.00 | 85 | 1008.1 |
| 20260509190057 | 84 | 18 | 4.3 | 5.2 | 0.00 | 0.00 | 0.00 | 86 | 1007.9 |
| 20260509185554 | 84 | 14 | 4.3 | 5.2 | 0.00 | 0.00 | 0.00 | 85 | 1008.2 |
| 20260509185050 | 84 | 10 | 4.3 | 5.2 | 0.00 | 0.00 | 0.00 | 85 | 1008.2 |
| 20260509184549 | 84 | 11 | 4.3 | 5.2 | 0.00 | 0.00 | 0.00 | 85 | 1008.4 |
| 20260509184046 | 84 | 11 | 4.3 | 5.2 | 0.00 | 0.00 | 0.00 | 85 | 1008.2 |
| 20260509183541 | 84 | 18 | 4.3 | 5.2 | 0.00 | 0.00 | 0.00 | 85 | 1008.5 |
| 20260509183037 | 84 | 14 | 4.3 | 5.2 | 0.00 | 0.00 | 0.00 | 86 | 1008.2 |
| 20260509182533 | 84 | 14 | 4.3 | 5.2 | 0.00 | 0.00 | 0.00 | 86 | 1008.2 |
| 20260509182030 | 84 | 14 | 4.3 | 5.2 | 0.00 | 0.00 | 0.00 | 86 | 1008.1 |
| 20260509181528 | 84 | 16 | 4.3 | 5.2 | 0.00 | 0.00 | 0.00 | 86 | 1008.3 |
| 20260509181025 | 84 | 15 | 4.3 | 5.2 | 0.00 | 0.00 | 0.00 | 87 | 1008.3 |
| 20260509180520 | 84 | 18 | 4.3 | 5.2 | 0.00 | 0.00 | 0.00 | 87 | 1008.4 |
| 20260509180019 | 84 | 12 | 4.3 | 5.2 | 0.00 | 0.00 | 0.00 | 87 | 1008.5 |
| 20260509175513 | 84 | 10 | 4.3 | 5.2 | 0.00 | 0.00 | 0.00 | 87 | 1008.5 |
| 20260509175011 | 84 | 14 | 4.3 | 5.2 | 0.00 | 0.00 | 0.00 | 87 | 1008.6 |
| 20260509174508 | 84 | 22 | 5.2 | 5.2 | 0.00 | 0.00 | 0.00 | 87 | 1008.7 |
| 20260509174008 | 84 | 24 | 5.2 | 5.2 | 0.00 | 0.00 | 0.00 | 87 | 1008.5 |
| 20260509173503 | 84 | 20 | 4.3 | 5.2 | 0.00 | 0.00 | 0.00 | 87 | 1008.7 |
| 20260509172959 | 84 | 16 | 4.3 | 5.2 | 0.00 | 0.00 | 0.00 | 86 | 1008.7 |
| 20260509172456 | 84 | 13 | 4.3 | 5.2 | 0.00 | 0.00 | 0.00 | 86 | 1008.8 |
| 20260509171952 | 84 | 13 | 4.3 | 5.2 | 0.00 | 0.00 | 0.00 | 86 | 1008.9 |
| 20260509171448 | 85 | 12 | 4.3 | 5.2 | 0.00 | 0.00 | 0.00 | 85 | 1008.7 |
| 20260509170945 | 84 | 10 | 4.3 | 5.2 | 0.00 | 0.00 | 0.00 | 85 | 1008.8 |
| 20260509170440 | 85 | 15 | 4.3 | 5.2 | 0.00 | 0.00 | 0.00 | 85 | 1008.9 |
| 20260509165937 | 85 | 16 | 4.3 | 5.2 | 0.00 | 0.00 | 0.00 | 85 | 1009.0 |
| 20260509165436 | 85 | 13 | 4.3 | 5.2 | 0.00 | 0.00 | 0.00 | 85 | 1008.8 |
| 20260509164932 | 85 | 12 | 4.3 | 5.2 | 0.00 | 0.00 | 0.00 | 85 | 1008.8 |
| 20260509164428 | 85 | 13 | 4.3 | 5.2 | 0.00 | 0.00 | 0.00 | 85 | 1008.8 |
| 20260509163924 | 85 | 17 | 4.3 | 5.2 | 0.00 | 0.00 | 0.00 | 85 | 1009.0 |
| 20260509163422 | 85 | 15 | 4.3 | 5.2 | 0.00 | 0.00 | 0.00 | 84 | 1009.1 |
| 20260509162920 | 85 | 11 | 4.3 | 5.2 | 0.00 | 0.00 | 0.00 | 84 | 1008.9 |
| 20260509162420 | 85 | 16 | 5.2 | 5.2 | 0.00 | 0.00 | 0.00 | 84 | 1009.1 |
| 20260509161915 | 85 | 14 | 4.3 | 5.2 | 0.00 | 0.00 | 0.00 | 83 | 1009.2 |
| 20260509161411 | 85 | 13 | 4.3 | 5.2 | 0.00 | 0.00 | 0.00 | 83 | 1009.3 |
| 20260509160907 | 85 | 11 | 4.3 | 5.2 | 0.00 | 0.00 | 0.00 | 82 | 1009.3 |
| 20260509160408 | 85 | 19 | 5.2 | 5.2 | 0.00 | 0.00 | 0.00 | 82 | 1009.2 |
| 20260509155903 | 85 | 13 | 4.3 | 5.2 | 0.00 | 0.00 | 0.00 | 81 | 1009.3 |
| 20260509155400 | 85 | 9 | 4.3 | 5.2 | 0.00 | 0.00 | 0.00 | 81 | 1009.3 |
| 20260509154856 | 85 | 10 | 5.2 | 5.2 | 0.00 | 0.00 | 0.00 | 81 | 1009.4 |
| 20260509154353 | 85 | 6 | 4.3 | 5.2 | 0.00 | 0.00 | 0.00 | 81 | 1009.1 |
| 20260509153850 | 85 | 9 | 4.3 | 5.2 | 0.00 | 0.00 | 0.00 | 81 | 1009.3 |
| 20260509153347 | 85 | 9 | 4.3 | 5.2 | 0.00 | 0.00 | 0.00 | 81 | 1009.3 |
| 20260509152844 | 85 | 3 | 4.3 | 5.2 | 0.00 | 0.00 | 0.00 | 80 | 1009.3 |
| 20260509152339 | 85 | 6 | 5.2 | 5.2 | 0.00 | 0.00 | 0.00 | 80 | 1009.3 |
| 20260509151837 | 85 | 3 | 4.3 | 5.2 | 0.00 | 0.00 | 0.00 | 80 | 1009.2 |
| 20260509151333 | 85 | 0 | 4.3 | 5.2 | 0.00 | 0.00 | 0.00 | 80 | 1009.2 |
| 20260509150832 | 85 | 2 | 4.3 | 5.2 | 0.00 | 0.00 | 0.00 | 80 | 1009.2 |
| 20260509150329 | 85 | 9 | 4.3 | 6.1 | 0.00 | 0.00 | 0.00 | 80 | 1009.2 |
| 20260509145826 | 85 | 0 | 6.1 | 7.0 | 0.00 | 0.00 | 0.00 | 80 | 1009.2 |
| 20260509145321 | 85 | 356 | 5.2 | 6.1 | 0.00 | 0.00 | 0.00 | 80 | 1009.2 |
| 20260509144818 | 85 | 9 | 5.2 | 6.1 | 0.00 | 0.00 | 0.00 | 80 | 1009.2 |
| 20260509144315 | 85 | 7 | 5.2 | 5.2 | 0.00 | 0.00 | 0.00 | 79 | 1009.1 |
| 20260509143812 | 85 | 13 | 4.3 | 5.2 | 0.00 | 0.00 | 0.00 | 79 | 1009.2 |
| 20260509143309 | 86 | 10 | 4.3 | 5.2 | 0.00 | 0.00 | 0.00 | 79 | 1009.1 |
| 20260509142805 | 86 | 10 | 4.3 | 5.2 | 0.00 | 0.00 | 0.00 | 78 | 1009.0 |
| 20260509142301 | 86 | 1 | 4.3 | 6.1 | 0.00 | 0.00 | 0.00 | 78 | 1008.8 |
| 20260509141756 | 86 | 9 | 4.3 | 5.2 | 0.00 | 0.00 | 0.00 | 78 | 1008.9 |
| 20260509141254 | 86 | 354 | 5.2 | 7.0 | 0.00 | 0.00 | 0.00 | 78 | 1008.9 |
| 20260509140751 | 86 | 350 | 7.0 | 7.0 | 0.00 | 0.00 | 0.00 | 78 | 1008.8 |
| 20260509140248 | 86 | 1 | 5.2 | 5.2 | 0.00 | 0.00 | 0.00 | 78 | 1008.8 |
| 20260509135745 | 86 | 6 | 5.2 | 7.0 | 0.00 | 0.00 | 0.00 | 78 | 1008.8 |
| 20260509135243 | 86 | 356 | 6.1 | 7.8 | 0.00 | 0.00 | 0.00 | 79 | 1008.7 |
| 20260509134740 | 86 | 358 | 6.1 | 7.8 | 0.00 | 0.00 | 0.00 | 79 | 1008.7 |
| 20260509134237 | 86 | 356 | 5.2 | 6.1 | 0.00 | 0.00 | 0.00 | 78 | 1008.6 |
| 20260509133734 | 86 | 0 | 5.2 | 6.1 | 0.00 | 0.00 | 0.00 | 78 | 1008.6 |
| 20260509133231 | 86 | 356 | 6.1 | 7.8 | 0.00 | 0.00 | 0.00 | 78 | 1008.4 |
| 20260509132730 | 86 | 2 | 6.1 | 6.1 | 0.00 | 0.00 | 0.00 | 79 | 1008.4 |
| 20260509132228 | 86 | 6 | 6.1 | 6.1 | 0.00 | 0.00 | 0.00 | 79 | 1008.5 |
| 20260509131724 | 86 | 11 | 4.3 | 5.2 | 0.00 | 0.00 | 0.00 | 78 | 1008.5 |
| 20260509131221 | 86 | 0 | 6.1 | 6.1 | 0.00 | 0.00 | 0.00 | 78 | 1008.3 |
| 20260509130717 | 86 | 0 | 4.3 | 6.1 | 0.00 | 0.00 | 0.00 | 77 | 1008.2 |
| 20260509130213 | 86 | 348 | 7.0 | 7.0 | 0.00 | 0.00 | 0.00 | 78 | 1008.1 |
| 20260509125709 | 86 | 10 | 4.3 | 6.1 | 0.00 | 0.00 | 0.00 | 79 | 1008.3 |
| 20260509125207 | 86 | 359 | 5.2 | 6.1 | 0.00 | 0.00 | 0.00 | 79 | 1008.3 |
| 20260509124703 | 86 | 14 | 4.3 | 5.2 | 0.00 | 0.00 | 0.00 | 79 | 1008.2 |
| 20260509124159 | 86 | 11 | 4.3 | 5.2 | 0.00 | 0.00 | 0.00 | 79 | 1008.1 |
| 20260509123658 | 86 | 14 | 4.3 | 5.2 | 0.00 | 0.00 | 0.00 | 79 | 1008.1 |
| 20260509123155 | 86 | 9 | 4.3 | 5.2 | 0.00 | 0.00 | 0.00 | 79 | 1008.1 |
| 20260509122650 | 86 | 13 | 4.3 | 6.1 | 0.00 | 0.00 | 0.00 | 79 | 1008.0 |
| 20260509122147 | 86 | 345 | 6.1 | 7.8 | 0.00 | 0.00 | 0.00 | 79 | 1007.9 |
| 20260509121644 | 86 | 16 | 4.3 | 5.2 | 0.00 | 0.00 | 0.00 | 80 | 1007.8 |
| 20260509121142 | 86 | 9 | 4.3 | 6.1 | 0.00 | 0.00 | 0.00 | 80 | 1007.7 |
| 20260509120640 | 86 | 13 | 4.3 | 5.2 | 0.00 | 0.00 | 0.00 | 80 | 1007.6 |
| 20260509120137 | 86 | 6 | 4.3 | 7.0 | 0.00 | 0.00 | 0.00 | 80 | 1007.6 |
| 20260509115634 | 86 | 356 | 5.2 | 6.1 | 0.00 | 0.00 | 0.00 | 80 | 1007.5 |
| 20260509115132 | 86 | 15 | 5.2 | 5.2 | 0.00 | 0.00 | 0.00 | 79 | 1007.4 |
| 20260509114630 | 86 | 13 | 4.3 | 5.2 | 0.00 | 0.00 | 0.00 | 79 | 1007.5 |
| 20260509114129 | 86 | 9 | 5.2 | 5.2 | 0.00 | 0.00 | 0.00 | 80 | 1007.4 |
| 20260509113627 | 86 | 15 | 4.3 | 5.2 | 0.00 | 0.00 | 0.00 | 79 | 1007.3 |
| 20260509113124 | 86 | 12 | 4.3 | 5.2 | 0.00 | 0.00 | 0.00 | 79 | 1007.1 |
| 20260509112620 | 86 | 7 | 4.3 | 5.2 | 0.00 | 0.00 | 0.00 | 79 | 1007.0 |
| 20260509112117 | 86 | 4 | 4.3 | 5.2 | 0.00 | 0.00 | 0.00 | 80 | 1007.1 |
| 20260509111614 | 86 | 4 | 4.3 | 6.1 | 0.00 | 0.00 | 0.00 | 80 | 1007.1 |
| 20260509111111 | 86 | 15 | 5.2 | 5.2 | 0.00 | 0.00 | 0.00 | 79 | 1006.9 |
| 20260509110608 | 86 | 13 | 5.2 | 5.2 | 0.00 | 0.00 | 0.00 | 79 | 1007.1 |
| 20260509110106 | 87 | 15 | 5.2 | 5.2 | 0.00 | 0.00 | 0.00 | 78 | 1006.7 |
| 20260509105604 | 87 | 11 | 4.3 | 5.2 | 0.00 | 0.00 | 0.00 | 78 | 1006.8 |
| 20260509105101 | 87 | 17 | 5.2 | 5.2 | 0.00 | 0.00 | 0.00 | 78 | 1006.7 |
| 20260509104557 | 87 | 12 | 4.3 | 5.2 | 0.00 | 0.00 | 0.00 | 77 | 1006.8 |
| 20260509104054 | 88 | 9 | 4.3 | 5.2 | 0.00 | 0.00 | 0.00 | 76 | 1006.8 |
| 20260509103552 | 88 | 18 | 5.2 | 5.2 | 0.00 | 0.00 | 0.00 | 75 | 1006.8 |
| 20260509103050 | 89 | 7 | 5.2 | 5.2 | 0.00 | 0.00 | 0.00 | 74 | 1006.6 |
| 20260509102547 | 89 | 12 | 4.3 | 5.2 | 0.00 | 0.00 | 0.00 | 74 | 1006.6 |
| 20260509102044 | 89 | 12 | 5.2 | 5.2 | 0.00 | 0.00 | 0.00 | 75 | 1006.6 |
| 20260509101540 | 89 | 13 | 5.2 | 5.2 | 0.00 | 0.00 | 0.00 | 74 | 1006.6 |
| 20260509101037 | 90 | 15 | 5.2 | 5.2 | 0.00 | 0.00 | 0.00 | 73 | 1006.6 |
| 20260509100534 | 91 | 17 | 5.2 | 6.1 | 0.00 | 0.00 | 0.00 | 72 | 1006.5 |
| 20260509100032 | 92 | 1 | 5.2 | 7.0 | 0.00 | 0.00 | 0.00 | 70 | 1006.4 |
| 20260509095528 | 94 | 13 | 5.2 | 5.2 | 0.00 | 0.00 | 0.00 | 67 | 1006.5 |
| 20260509095026 | 94 | 10 | 5.2 | 5.2 | 0.00 | 0.00 | 0.00 | 68 | 1006.1 |
| 20260509094522 | 93 | 14 | 4.3 | 5.2 | 0.00 | 0.00 | 0.00 | 68 | 1006.4 |
| 20260509094019 | 93 | 18 | 5.2 | 5.2 | 0.00 | 0.00 | 0.00 | 68 | 1006.4 |
| 20260509093517 | 94 | 14 | 5.2 | 5.2 | 0.00 | 0.00 | 0.00 | 66 | 1006.2 |
| 20260509093015 | 94 | 9 | 5.2 | 6.1 | 0.00 | 0.00 | 0.00 | 66 | 1006.0 |
| 20260509092512 | 94 | 11 | 5.2 | 5.2 | 0.00 | 0.00 | 0.00 | 67 | 1006.3 |
| 20260509092011 | 93 | 15 | 5.2 | 5.2 | 0.00 | 0.00 | 0.00 | 67 | 1006.3 |
| 20260509091508 | 94 | 11 | 5.2 | 5.2 | 0.00 | 0.00 | 0.00 | 66 | 1006.1 |
| 20260509091004 | 95 | 13 | 5.2 | 5.2 | 0.00 | 0.00 | 0.00 | 64 | 1006.2 |
| 20260509090502 | 94 | 1 | 4.3 | 5.2 | 0.00 | 0.00 | 0.00 | 65 | 1006.5 |
| 20260509085959 | 94 | 14 | 5.2 | 5.2 | 0.00 | 0.00 | 0.00 | 67 | 1006.4 |
| 20260509085456 | 95 | 1 | 5.2 | 6.1 | 0.00 | 0.00 | 0.00 | 66 | 1006.5 |
| 20260509084952 | 93 | 10 | 4.3 | 5.2 | 0.00 | 0.00 | 0.00 | 68 | 1006.6 |
| 20260509084449 | 91 | 17 | 5.2 | 7.0 | 0.00 | 0.00 | 0.00 | 69 | 1006.7 |
| 20260509083947 | 89 | 17 | 5.2 | 8.7 | 0.00 | 0.00 | 0.00 | 74 | 1006.8 |
| 20260509083444 | 91 | 353 | 6.1 | 7.0 | 0.00 | 0.00 | 0.00 | 72 | 1006.7 |
| 20260509082940 | 90 | 10 | 5.2 | 5.2 | 0.00 | 0.00 | 0.00 | 71 | 1006.9 |
| 20260509082438 | 90 | 2 | 4.3 | 5.2 | 0.00 | 0.00 | 0.00 | 74 | 1006.7 |
| 20260509081935 | 88 | 5 | 5.2 | 5.2 | 0.00 | 0.00 | 0.00 | 76 | 1006.9 |
| 20260509081432 | 88 | 7 | 4.3 | 5.2 | 0.00 | 0.00 | 0.00 | 78 | 1007.1 |
| 20260509080929 | 89 | 1 | 5.2 | 5.2 | 0.00 | 0.00 | 0.00 | 75 | 1007.1 |
| 20260509080427 | 89 | 14 | 5.2 | 5.2 | 0.00 | 0.00 | 0.00 | 75 | 1007.1 |
| 20260509075925 | 89 | 13 | 5.2 | 5.2 | 0.00 | 0.00 | 0.00 | 74 | 1007.1 |
| 20260509075422 | 88 | 358 | 4.3 | 5.2 | 0.00 | 0.00 | 0.00 | 75 | 1007.4 |
| 20260509074919 | 87 | 358 | 6.1 | 8.7 | 0.00 | 0.00 | 0.00 | 76 | 1007.3 |
| 20260509074417 | 89 | 3 | 5.2 | 6.1 | 0.00 | 0.00 | 0.00 | 74 | 1007.4 |
| 20260509073913 | 88 | 0 | 4.3 | 5.2 | 0.00 | 0.00 | 0.00 | 75 | 1007.6 |
| 20260509073409 | 88 | 354 | 6.1 | 7.0 | 0.00 | 0.00 | 0.00 | 76 | 1007.7 |
| 20260509072906 | 88 | 13 | 5.2 | 7.0 | 0.00 | 0.00 | 0.00 | 77 | 1007.5 |
| 20260509072402 | 88 | 353 | 5.2 | 7.0 | 0.00 | 0.00 | 0.00 | 76 | 1007.5 |
| 20260509071859 | 88 | 0 | 4.3 | 5.2 | 0.00 | 0.00 | 0.00 | 77 | 1007.7 |
| 20260509071356 | 89 | 12 | 5.2 | 6.1 | 0.00 | 0.00 | 0.00 | 75 | 1007.7 |
| 20260509070854 | 89 | 10 | 5.2 | 5.2 | 0.00 | 0.00 | 0.00 | 76 | 1007.8 |
| 20260509070350 | 89 | 6 | 4.3 | 7.0 | 0.00 | 0.00 | 0.00 | 75 | 1008.1 |
| 20260509065846 | 89 | 11 | 5.2 | 6.1 | 0.00 | 0.00 | 0.00 | 75 | 1008.1 |
| 20260509065343 | 90 | 15 | 5.2 | 6.1 | 0.00 | 0.00 | 0.00 | 74 | 1008.2 |
| 20260509064839 | 89 | 7 | 5.2 | 5.2 | 0.00 | 0.00 | 0.00 | 75 | 1008.4 |
| 20260509064336 | 90 | 15 | 5.2 | 6.1 | 0.00 | 0.00 | 0.00 | 75 | 1008.6 |
| 20260509063834 | 90 | 17 | 4.3 | 5.2 | 0.00 | 0.00 | 0.00 | 75 | 1008.7 |
| 20260509063330 | 88 | 14 | 4.3 | 5.2 | 0.00 | 0.00 | 0.00 | 77 | 1008.8 |
| 20260509062827 | 89 | 10 | 4.3 | 5.2 | 0.00 | 0.00 | 0.00 | 75 | 1008.8 |
| 20260509062324 | 89 | 8 | 5.2 | 5.2 | 0.00 | 0.00 | 0.00 | 75 | 1009.2 |
| 20260509061821 | 88 | 8 | 4.3 | 5.2 | 0.00 | 0.00 | 0.00 | 76 | 1009.3 |
| 20260509061320 | 88 | 11 | 4.3 | 5.2 | 0.00 | 0.00 | 0.00 | 77 | 1009.6 |
| 20260509060816 | 87 | 351 | 6.1 | 7.8 | 0.00 | 0.00 | 0.00 | 77 | 1009.6 |
| 20260509060313 | 86 | 3 | 5.2 | 9.6 | 0.00 | 0.00 | 0.00 | 79 | 1009.6 |
| 20260509055808 | 88 | 11 | 4.3 | 5.2 | 0.00 | 0.00 | 0.00 | 76 | 1009.7 |
| 20260509055306 | 88 | 355 | 4.3 | 5.2 | 0.00 | 0.00 | 0.00 | 76 | 1009.7 |
| 20260509054801 | 88 | 3 | 4.3 | 5.2 | 0.00 | 0.00 | 0.00 | 76 | 1009.7 |
| 20260509054258 | 88 | 7 | 4.3 | 5.2 | 0.00 | 0.00 | 0.00 | 77 | 1009.8 |
| 20260509053756 | 87 | 9 | 4.3 | 5.2 | 0.00 | 0.00 | 0.00 | 77 | 1009.7 |
| 20260509053253 | 87 | 357 | 5.2 | 5.2 | 0.00 | 0.00 | 0.00 | 77 | 1009.8 |
| 20260509052751 | 87 | 12 | 4.3 | 5.2 | 0.00 | 0.00 | 0.00 | 77 | 1010.1 |
| 20260509052248 | 87 | 12 | 5.2 | 5.2 | 0.00 | 0.00 | 0.00 | 78 | 1010.2 |
| 20260509051746 | 87 | 14 | 4.3 | 5.2 | 0.00 | 0.00 | 0.00 | 77 | 1010.2 |
| 20260509051244 | 87 | 7 | 4.3 | 6.1 | 0.00 | 0.00 | 0.00 | 76 | 1010.2 |
| 20260509050740 | 87 | 9 | 5.2 | 5.2 | 0.00 | 0.00 | 0.00 | 76 | 1010.2 |
| 20260509050237 | 87 | 14 | 5.2 | 5.2 | 0.00 | 0.00 | 0.00 | 75 | 1010.1 |
| 20260509045734 | 87 | 7 | 4.3 | 5.2 | 0.00 | 0.00 | 0.00 | 74 | 1010.3 |
| 20260509045231 | 87 | 11 | 4.3 | 5.2 | 0.00 | 0.00 | 0.00 | 73 | 1010.1 |
| 20260509044728 | 88 | 15 | 4.3 | 6.1 | 0.00 | 0.00 | 0.00 | 72 | 1010.3 |
| 20260509044226 | 87 | 354 | 5.2 | 6.1 | 0.00 | 0.00 | 0.00 | 71 | 1010.3 |
| 20260509043722 | 86 | 7 | 5.2 | 5.2 | 0.00 | 0.00 | 0.00 | 74 | 1010.3 |
| 20260509043218 | 86 | 14 | 5.2 | 7.0 | 0.00 | 0.00 | 0.00 | 72 | 1010.3 |
| 20260509042714 | 86 | 11 | 5.2 | 5.2 | 0.00 | 0.00 | 0.00 | 75 | 1010.4 |
| 20260509042210 | 86 | 5 | 5.2 | 5.2 | 0.00 | 0.00 | 0.00 | 76 | 1010.6 |
| 20260509041707 | 86 | 17 | 4.3 | 5.2 | 0.00 | 0.00 | 0.00 | 76 | 1010.2 |
| 20260509041205 | 86 | 6 | 5.2 | 6.1 | 0.00 | 0.00 | 0.00 | 78 | 1010.6 |
| 20260509040703 | 86 | 9 | 5.2 | 6.1 | 0.00 | 0.00 | 0.00 | 78 | 1010.5 |
| 20260509040159 | 86 | 14 | 4.3 | 6.1 | 0.00 | 0.00 | 0.00 | 80 | 1010.7 |
| 20260509035656 | 86 | 15 | 5.2 | 5.2 | 0.00 | 0.00 | 0.00 | 81 | 1010.8 |
| 20260509035153 | 86 | 10 | 4.3 | 6.1 | 0.00 | 0.00 | 0.00 | 82 | 1011.0 |
| 20260509034651 | 86 | 3 | 4.3 | 5.2 | 0.00 | 0.00 | 0.00 | 81 | 1011.0 |
| 20260509034147 | 86 | 0 | 4.3 | 5.2 | 0.00 | 0.00 | 0.00 | 80 | 1010.8 |
| 20260509033645 | 86 | 19 | 4.3 | 5.2 | 0.00 | 0.00 | 0.00 | 81 | 1010.7 |
| 20260509033141 | 86 | 359 | 4.3 | 6.1 | 0.00 | 0.00 | 0.00 | 81 | 1010.8 |
| 20260509032639 | 86 | 1 | 5.2 | 6.1 | 0.00 | 0.00 | 0.00 | 80 | 1010.7 |
| 20260509032136 | 86 | 352 | 4.3 | 6.1 | 0.00 | 0.00 | 0.00 | 81 | 1010.9 |
| 20260509031633 | 86 | 15 | 4.3 | 5.2 | 0.00 | 0.00 | 0.00 | 82 | 1011.0 |
| 20260509031130 | 86 | 8 | 5.2 | 7.0 | 0.00 | 0.00 | 0.00 | 80 | 1011.0 |
| 20260509030629 | 85 | 9 | 5.2 | 5.2 | 0.00 | 0.00 | 0.00 | 81 | 1010.7 |
| 20260509030126 | 85 | 8 | 5.2 | 6.1 | 0.00 | 0.00 | 0.00 | 81 | 1011.0 |
| 20260509025622 | 85 | 1 | 4.3 | 5.2 | 0.00 | 0.00 | 0.00 | 81 | 1011.0 |
| 20260509025117 | 85 | 11 | 4.3 | 5.2 | 0.00 | 0.00 | 0.00 | 82 | 1011.0 |
| 20260509024613 | 85 | 7 | 5.2 | 5.2 | 0.00 | 0.00 | 0.00 | 82 | 1010.9 |
| 20260509024109 | 85 | 11 | 4.3 | 5.2 | 0.00 | 0.00 | 0.00 | 82 | 1010.9 |
| 20260509023608 | 85 | 8 | 5.2 | 5.2 | 0.00 | 0.00 | 0.00 | 82 | 1011.0 |
| 20260509023104 | 85 | 359 | 4.3 | 5.2 | 0.00 | 0.00 | 0.00 | 83 | 1011.1 |
| 20260509022600 | 84 | 2 | 5.2 | 6.1 | 0.00 | 0.00 | 0.00 | 83 | 1011.1 |
| 20260509022058 | 84 | 11 | 4.3 | 5.2 | 0.02 | 0.00 | 0.00 | 84 | 1011.1 |
| 20260509021555 | 84 | 3 | 4.3 | 5.2 | 0.00 | 0.00 | 0.00 | 84 | 1010.9 |
| 20260509021052 | 83 | 356 | 5.2 | 7.0 | 0.00 | 0.00 | 0.00 | 86 | 1011.1 |
| 20260509020550 | 84 | 12 | 4.3 | 5.2 | 0.00 | 0.00 | 0.00 | 88 | 1011.0 |
| 20260509020047 | 84 | 9 | 4.3 | 5.2 | 0.00 | 0.00 | 0.00 | 88 | 1011.1 |
| 20260509015546 | 84 | 6 | 5.2 | 5.2 | 0.00 | 0.00 | 0.00 | 88 | 1011.1 |
| 20260509015043 | 84 | 9 | 4.3 | 5.2 | 0.00 | 0.00 | 0.00 | 88 | 1011.0 |
| 20260509014539 | 83 | 8 | 4.3 | 5.2 | 0.00 | 0.00 | 0.00 | 89 | 1011.0 |
| 20260509014036 | 83 | 8 | 4.3 | 5.2 | 0.00 | 0.00 | 0.00 | 90 | 1010.6 |
| 20260509013533 | 82 | 4 | 4.3 | 5.2 | 0.00 | 0.00 | 0.00 | 91 | 1011.0 |
| 20260509013028 | 82 | 7 | 4.3 | 5.2 | 0.00 | 0.00 | 0.00 | 92 | 1010.7 |
| 20260509012525 | 82 | 23 | 4.3 | 5.2 | 0.00 | 0.00 | 0.00 | 92 | 1010.9 |
| 20260509012022 | 81 | 14 | 4.3 | 5.2 | 0.00 | 0.00 | 0.00 | 92 | 1010.5 |
| 20260509011520 | 82 | 20 | 4.3 | 5.2 | 0.00 | 0.00 | 0.00 | 93 | 1010.7 |
| 20260509011017 | 81 | 16 | 4.3 | 5.2 | 0.00 | 0.00 | 0.00 | 93 | 1010.8 |
| 20260509010515 | 81 | 18 | 4.3 | 5.2 | 0.00 | 0.00 | 0.00 | 93 | 1010.6 |
| 20260509010011 | 81 | 11 | 4.3 | 5.2 | 0.00 | 0.00 | 0.00 | 93 | 1010.7 |
| 20260509005509 | 81 | 10 | 4.3 | 4.3 | 0.00 | 0.00 | 0.00 | 94 | 1010.5 |
| 20260509005009 | 81 | 23 | 4.3 | 5.2 | 0.00 | 0.00 | 0.00 | 94 | 1010.6 |
| 20260509004506 | 81 | 3 | 4.3 | 5.2 | 0.00 | 0.00 | 0.00 | 94 | 1010.4 |
| 20260509004003 | 81 | 12 | 4.3 | 5.2 | 0.00 | 0.00 | 0.00 | 94 | 1010.4 |
| 20260509003502 | 81 | 15 | 4.3 | 5.2 | 0.00 | 0.00 | 0.00 | 93 | 1010.5 |
| 20260509002958 | 81 | 3 | 5.2 | 5.2 | 0.00 | 0.00 | 0.00 | 93 | 1010.4 |
| 20260509002456 | 81 | 14 | 4.3 | 5.2 | 0.00 | 0.00 | 0.00 | 93 | 1010.4 |
| 20260509001953 | 81 | 10 | 4.3 | 5.2 | 0.00 | 0.00 | 0.00 | 93 | 1010.2 |
| 20260509001449 | 81 | 15 | 4.3 | 5.2 | 0.00 | 0.00 | 0.00 | 93 | 1010.3 |
| 20260509000946 | 81 | 7 | 5.2 | 5.2 | 0.00 | 0.00 | 0.00 | 93 | 1010.1 |
| 20260509000447 | 81 | 9 | 4.3 | 5.2 | 0.00 | 0.00 | 0.00 | 93 | 1009.9 |
| 20260508235940 | 81 | 2 | 5.2 | 5.2 | 0.00 | 0.00 | 0.00 | 93 | 1009.9 |
| 20260508235438 | 81 | 4 | 5.2 | 5.2 | 0.00 | 0.00 | 0.00 | 93 | 1010.0 |
| 20260508234934 | 81 | 14 | 4.3 | 5.2 | 0.00 | 0.00 | 0.00 | 93 | 1009.8 |
| 20260508234431 | 81 | 8 | 4.3 | 5.2 | 0.00 | 0.00 | 0.00 | 93 | 1009.8 |
| 20260508233929 | 81 | 11 | 4.3 | 5.2 | 0.00 | 0.00 | 0.00 | 92 | 1009.6 |
| 20260508233428 | 80 | 11 | 5.2 | 5.2 | 0.00 | 0.00 | 0.00 | 92 | 1009.4 |
| 20260508232925 | 80 | 10 | 4.3 | 5.2 | 0.00 | 0.00 | 0.00 | 92 | 1009.5 |
| 20260508232422 | 80 | 6 | 4.3 | 5.2 | 0.00 | 0.00 | 0.00 | 92 | 1009.3 |
| 20260508231919 | 80 | 5 | 4.3 | 5.2 | 0.00 | 0.00 | 0.00 | 91 | 1009.4 |
| 20260508231416 | 80 | 14 | 4.3 | 5.2 | 0.00 | 0.00 | 0.00 | 91 | 1009.2 |
| 20260508230913 | 80 | 12 | 4.3 | 5.2 | 0.00 | 0.00 | 0.00 | 91 | 1009.3 |
| 20260508230409 | 80 | 11 | 4.3 | 5.2 | 0.00 | 0.00 | 0.00 | 91 | 1009.1 |
| 20260508225906 | 80 | 10 | 4.3 | 5.2 | 0.00 | 0.00 | 0.00 | 91 | 1009.0 |
| 20260508225403 | 80 | 11 | 4.3 | 5.2 | 0.00 | 0.00 | 0.00 | 91 | 1009.1 |
| 20260508224901 | 80 | 11 | 4.3 | 5.2 | 0.00 | 0.00 | 0.00 | 91 | 1009.0 |
| 20260508224358 | 80 | 6 | 4.3 | 5.2 | 0.00 | 0.00 | 0.00 | 91 | 1008.7 |
| 20260508223856 | 80 | 6 | 4.3 | 5.2 | 0.00 | 0.00 | 0.00 | 91 | 1008.8 |
| 20260508223353 | 80 | 5 | 4.3 | 5.2 | 0.00 | 0.00 | 0.00 | 90 | 1008.8 |
| 20260508222851 | 80 | 13 | 4.3 | 5.2 | 0.00 | 0.00 | 0.00 | 91 | 1008.7 |
| 20260508222347 | 80 | 7 | 4.3 | 5.2 | 0.00 | 0.00 | 0.00 | 90 | 1008.6 |
| 20260508221844 | 80 | 10 | 4.3 | 5.2 | 0.00 | 0.00 | 0.00 | 90 | 1008.4 |
| 20260508221339 | 80 | 7 | 4.3 | 5.2 | 0.00 | 0.00 | 0.00 | 90 | 1008.3 |
| 20260508220836 | 80 | 11 | 4.3 | 5.2 | 0.00 | 0.00 | 0.00 | 90 | 1008.3 |
| 20260508220332 | 80 | 20 | 5.2 | 5.2 | 0.00 | 0.00 | 0.00 | 90 | 1008.2 |
| 20260508215829 | 80 | 10 | 4.3 | 5.2 | 0.00 | 0.00 | 0.00 | 90 | 1008.2 |
| 20260508215326 | 80 | 6 | 5.2 | 5.2 | 0.00 | 0.00 | 0.00 | 90 | 1008.2 |
| 20260508214823 | 80 | 9 | 4.3 | 5.2 | 0.00 | 0.00 | 0.00 | 90 | 1008.1 |
| 20260508214320 | 80 | 16 | 4.3 | 5.2 | 0.00 | 0.00 | 0.00 | 90 | 1008.1 |
| 20260508213816 | 80 | 5 | 4.3 | 5.2 | 0.00 | 0.00 | 0.00 | 90 | 1008.1 |
| 20260508213313 | 80 | 10 | 4.3 | 5.2 | 0.00 | 0.00 | 0.00 | 91 | 1007.9 |
| 20260508212810 | 80 | 9 | 4.3 | 5.2 | 0.00 | 0.00 | 0.00 | 90 | 1008.0 |
| 20260508212306 | 80 | 7 | 5.2 | 5.2 | 0.00 | 0.00 | 0.00 | 90 | 1008.2 |
| 20260508211801 | 80 | 9 | 4.3 | 5.2 | 0.00 | 0.00 | 0.00 | 90 | 1008.2 |
| 20260508211257 | 80 | 11 | 4.3 | 5.2 | 0.00 | 0.00 | 0.00 | 91 | 1008.2 |
| 20260508210755 | 80 | 9 | 4.3 | 5.2 | 0.00 | 0.00 | 0.00 | 91 | 1008.3 |
| 20260508210252 | 80 | 13 | 4.3 | 5.2 | 0.00 | 0.00 | 0.00 | 91 | 1008.1 |
| 20260508205749 | 80 | 9 | 4.3 | 5.2 | 0.00 | 0.00 | 0.00 | 90 | 1008.2 |
| 20260508205245 | 80 | 8 | 4.3 | 5.2 | 0.00 | 0.00 | 0.00 | 89 | 1008.1 |
| 20260508204742 | 80 | 352 | 6.1 | 6.1 | 0.00 | 0.00 | 0.00 | 89 | 1008.1 |
| 20260508204238 | 80 | 357 | 5.2 | 6.1 | 0.00 | 0.00 | 0.00 | 90 | 1008.0 |
| 20260508203734 | 80 | 358 | 5.2 | 6.1 | 0.00 | 0.00 | 0.00 | 91 | 1008.2 |
| 20260508203231 | 80 | 7 | 7.0 | 7.0 | 0.00 | 0.00 | 0.00 | 91 | 1008.0 |
| 20260508202726 | 80 | 2 | 4.3 | 5.2 | 0.00 | 0.00 | 0.00 | 92 | 1008.1 |
| 20260508202224 | 80 | 351 | 6.1 | 7.0 | 0.00 | 0.00 | 0.00 | 92 | 1008.0 |
| 20260508201721 | 80 | 8 | 4.3 | 5.2 | 0.00 | 0.00 | 0.00 | 92 | 1008.2 |
| 20260508201217 | 80 | 8 | 5.2 | 5.2 | 0.00 | 0.00 | 0.00 | 92 | 1008.1 |
| 20260508200714 | 80 | 10 | 4.3 | 5.2 | 0.00 | 0.00 | 0.00 | 92 | 1008.2 |
| 20260508200210 | 80 | 5 | 5.2 | 7.0 | 0.00 | 0.00 | 0.00 | 92 | 1008.0 |
| 20260508195707 | 80 | 18 | 5.2 | 6.1 | 0.00 | 0.00 | 0.00 | 92 | 1008.2 |
| 20260508195203 | 80 | 0 | 6.1 | 7.0 | 0.00 | 0.00 | 0.00 | 92 | 1008.1 |
| 20260508194700 | 80 | 352 | 6.1 | 7.0 | 0.00 | 0.00 | 0.00 | 92 | 1008.1 |
| 20260508194157 | 80 | 357 | 6.1 | 7.0 | 0.00 | 0.00 | 0.00 | 92 | 1008.1 |
| 20260508193654 | 80 | 0 | 6.1 | 7.0 | 0.00 | 0.00 | 0.00 | 92 | 1008.3 |
| 20260508193151 | 80 | 352 | 7.0 | 7.8 | 0.00 | 0.00 | 0.00 | 92 | 1008.1 |
| 20260508192647 | 80 | 346 | 6.1 | 7.0 | 0.00 | 0.00 | 0.00 | 92 | 1008.1 |
| 20260508192145 | 80 | 345 | 6.1 | 7.0 | 0.00 | 0.00 | 0.00 | 92 | 1008.3 |
| 20260508191642 | 80 | 4 | 6.1 | 7.8 | 0.00 | 0.00 | 0.00 | 92 | 1008.3 |
| 20260508191138 | 80 | 8 | 6.1 | 8.7 | 0.00 | 0.00 | 0.00 | 92 | 1008.5 |